sensor_id;sensor_type;location;lat;lon;timestamp;P1;durP1;ratioP1;P2;durP2;ratioP2
26696;SDS011;14312;52.614;13.496;2023-09-18T00:00:03;3.92;;;3.63;;
26696;SDS011;14312;52.614;13.496;2023-09-18T00:02:54;3.28;;;3.03;;
26696;SDS011;14312;52.614;13.496;2023-09-18T00:05:40;3.53;;;3.22;;
26696;SDS011;14312;52.614;13.496;2023-09-18T00:08:25;3.70;;;3.40;;
26696;SDS011;14312;52.614;13.496;2023-09-18T00:11:12;3.67;;;3.38;;
26696;SDS011;14312;52.614;13.496;2023-09-18T00:13:58;3.55;;;3.25;;
26696;SDS011;14312;52.614;13.496;2023-09-18T00:16:43;3.65;;;3.35;;
26696;SDS011;14312;52.614;13.496;2023-09-18T00:19:29;4.00;;;3.60;;
26696;SDS011;14312;52.614;13.496;2023-09-18T00:22:17;3.20;;;3.00;;
26696;SDS011;14312;52.614;13.496;2023-09-18T00:25:03;5.13;;;3.65;;
26696;SDS011;14312;52.614;13.496;2023-09-18T00:27:50;3.55;;;3.33;;
26696;SDS011;14312;52.614;13.496;2023-09-18T00:30:38;3.75;;;3.47;;
26696;SDS011;14312;52.614;13.496;2023-09-18T00:33:28;3.50;;;3.20;;
26696;SDS011;14312;52.614;13.496;2023-09-18T00:36:14;3.47;;;3.20;;
26696;SDS011;14312;52.614;13.496;2023-09-18T00:39:00;3.53;;;3.20;;
26696;SDS011;14312;52.614;13.496;2023-09-18T00:41:46;4.10;;;3.80;;
26696;SDS011;14312;52.614;13.496;2023-09-18T00:44:34;3.70;;;3.40;;
26696;SDS011;14312;52.614;13.496;2023-09-18T00:47:20;3.67;;;3.42;;
26696;SDS011;14312;52.614;13.496;2023-09-18T00:50:06;4.07;;;3.78;;
26696;SDS011;14312;52.614;13.496;2023-09-18T00:52:56;3.75;;;3.55;;
26696;SDS011;14312;52.614;13.496;2023-09-18T00:55:41;3.70;;;3.40;;
26696;SDS011;14312;52.614;13.496;2023-09-18T00:58:28;3.28;;;3.08;;
26696;SDS011;14312;52.614;13.496;2023-09-18T01:01:15;3.88;;;3.58;;
26696;SDS011;14312;52.614;13.496;2023-09-18T01:04:08;3.88;;;3.58;;
26696;SDS011;14312;52.614;13.496;2023-09-18T01:06:55;4.07;;;3.78;;
26696;SDS011;14312;52.614;13.496;2023-09-18T01:09:42;3.90;;;3.60;;
26696;SDS011;14312;52.614;13.496;2023-09-18T01:15:35;3.95;;;3.60;;
26696;SDS011;14312;52.614;13.496;2023-09-18T01:18:27;4.25;;;3.83;;
26696;SDS011;14312;52.614;13.496;2023-09-18T01:21:13;4.07;;;3.78;;
26696;SDS011;14312;52.614;13.496;2023-09-18T01:23:59;3.63;;;3.42;;
26696;SDS011;14312;52.614;13.496;2023-09-18T01:26:44;3.70;;;3.50;;
26696;SDS011;14312;52.614;13.496;2023-09-18T01:29:31;4.05;;;3.63;;
26696;SDS011;14312;52.614;13.496;2023-09-18T01:32:17;3.97;;;3.67;;
26696;SDS011;14312;52.614;13.496;2023-09-18T01:35:03;4.28;;;3.88;;
26696;SDS011;14312;52.614;13.496;2023-09-18T01:37:53;3.75;;;3.45;;
26696;SDS011;14312;52.614;13.496;2023-09-18T01:40:40;4.07;;;3.78;;
26696;SDS011;14312;52.614;13.496;2023-09-18T01:43:27;3.88;;;3.58;;
26696;SDS011;14312;52.614;13.496;2023-09-18T01:46:13;4.18;;;3.88;;
26696;SDS011;14312;52.614;13.496;2023-09-18T01:48:59;3.88;;;3.58;;
26696;SDS011;14312;52.614;13.496;2023-09-18T01:51:45;4.15;;;3.75;;
26696;SDS011;14312;52.614;13.496;2023-09-18T01:54:33;3.70;;;3.40;;
26696;SDS011;14312;52.614;13.496;2023-09-18T01:57:20;3.63;;;3.40;;
26696;SDS011;14312;52.614;13.496;2023-09-18T02:00:06;3.88;;;3.58;;
26696;SDS011;14312;52.614;13.496;2023-09-18T02:02:55;3.90;;;3.60;;
26696;SDS011;14312;52.614;13.496;2023-09-18T02:05:41;3.97;;;3.67;;
26696;SDS011;14312;52.614;13.496;2023-09-18T02:08:27;3.95;;;3.65;;
26696;SDS011;14312;52.614;13.496;2023-09-18T02:11:13;4.03;;;3.63;;
26696;SDS011;14312;52.614;13.496;2023-09-18T02:13:59;4.10;;;3.80;;
26696;SDS011;14312;52.614;13.496;2023-09-18T02:16:46;3.92;;;3.50;;
26696;SDS011;14312;52.614;13.496;2023-09-18T02:19:32;3.75;;;3.45;;
26696;SDS011;14312;52.614;13.496;2023-09-18T02:22:18;4.07;;;3.78;;
26696;SDS011;14312;52.614;13.496;2023-09-18T02:25:04;4.10;;;3.80;;
26696;SDS011;14312;52.614;13.496;2023-09-18T02:27:50;3.75;;;3.45;;
26696;SDS011;14312;52.614;13.496;2023-09-18T02:30:36;3.45;;;3.15;;
26696;SDS011;14312;52.614;13.496;2023-09-18T02:33:22;4.05;;;3.75;;
26696;SDS011;14312;52.614;13.496;2023-09-18T02:36:09;4.13;;;3.78;;
26696;SDS011;14312;52.614;13.496;2023-09-18T02:38:55;4.38;;;3.97;;
26696;SDS011;14312;52.614;13.496;2023-09-18T02:41:41;3.80;;;3.50;;
26696;SDS011;14312;52.614;13.496;2023-09-18T02:44:27;3.75;;;3.45;;
26696;SDS011;14312;52.614;13.496;2023-09-18T02:47:13;3.88;;;3.58;;
26696;SDS011;14312;52.614;13.496;2023-09-18T02:49:58;4.28;;;3.88;;
26696;SDS011;14312;52.614;13.496;2023-09-18T02:52:44;4.18;;;3.40;;
26696;SDS011;14312;52.614;13.496;2023-09-18T02:55:30;3.97;;;3.67;;
26696;SDS011;14312;52.614;13.496;2023-09-18T02:58:16;3.95;;;3.65;;
26696;SDS011;14312;52.614;13.496;2023-09-18T03:01:02;4.32;;;4.03;;
26696;SDS011;14312;52.614;13.496;2023-09-18T03:03:50;3.80;;;3.50;;
26696;SDS011;14312;52.614;13.496;2023-09-18T03:06:38;3.70;;;3.40;;
26696;SDS011;14312;52.614;13.496;2023-09-18T03:09:25;3.88;;;3.58;;
26696;SDS011;14312;52.614;13.496;2023-09-18T03:12:11;3.72;;;3.42;;
26696;SDS011;14312;52.614;13.496;2023-09-18T03:14:57;3.72;;;3.45;;
26696;SDS011;14312;52.614;13.496;2023-09-18T03:17:43;3.67;;;3.38;;
26696;SDS011;14312;52.614;13.496;2023-09-18T03:20:29;3.38;;;3.17;;
26696;SDS011;14312;52.614;13.496;2023-09-18T03:23:15;3.83;;;3.53;;
26696;SDS011;14312;52.614;13.496;2023-09-18T03:26:01;3.72;;;3.47;;
26696;SDS011;14312;52.614;13.496;2023-09-18T03:28:47;3.92;;;3.65;;
26696;SDS011;14312;52.614;13.496;2023-09-18T03:31:33;3.30;;;3.10;;
26696;SDS011;14312;52.614;13.496;2023-09-18T03:34:19;3.97;;;3.67;;
26696;SDS011;14312;52.614;13.496;2023-09-18T03:37:05;3.88;;;3.58;;
26696;SDS011;14312;52.614;13.496;2023-09-18T03:39:51;4.00;;;3.65;;
26696;SDS011;14312;52.614;13.496;2023-09-18T03:42:37;3.60;;;3.38;;
26696;SDS011;14312;52.614;13.496;2023-09-18T03:45:23;3.72;;;3.42;;
26696;SDS011;14312;52.614;13.496;2023-09-18T03:48:10;3.55;;;3.33;;
26696;SDS011;14312;52.614;13.496;2023-09-18T03:50:56;3.58;;;3.28;;
26696;SDS011;14312;52.614;13.496;2023-09-18T03:53:42;3.60;;;3.30;;
26696;SDS011;14312;52.614;13.496;2023-09-18T03:56:28;3.40;;;3.20;;
26696;SDS011;14312;52.614;13.496;2023-09-18T03:59:14;3.55;;;3.25;;
26696;SDS011;14312;52.614;13.496;2023-09-18T04:02:00;3.35;;;3.05;;
26696;SDS011;14312;52.614;13.496;2023-09-18T04:04:45;3.63;;;3.33;;
26696;SDS011;14312;52.614;13.496;2023-09-18T04:07:31;3.63;;;3.33;;
26696;SDS011;14312;52.614;13.496;2023-09-18T04:10:15;3.90;;;3.60;;
26696;SDS011;14312;52.614;13.496;2023-09-18T04:13:07;3.70;;;3.40;;
26696;SDS011;14312;52.614;13.496;2023-09-18T04:15:54;3.63;;;3.33;;
26696;SDS011;14312;52.614;13.496;2023-09-18T04:18:40;3.55;;;3.25;;
26696;SDS011;14312;52.614;13.496;2023-09-18T04:21:26;3.40;;;3.00;;
26696;SDS011;14312;52.614;13.496;2023-09-18T04:24:12;3.58;;;3.28;;
26696;SDS011;14312;52.614;13.496;2023-09-18T04:26:58;4.97;;;3.67;;
26696;SDS011;14312;52.614;13.496;2023-09-18T04:29:43;3.72;;;3.42;;
26696;SDS011;14312;52.614;13.496;2023-09-18T04:32:29;4.53;;;3.53;;
26696;SDS011;14312;52.614;13.496;2023-09-18T04:35:16;3.53;;;3.28;;
26696;SDS011;14312;52.614;13.496;2023-09-18T04:38:02;4.05;;;3.75;;
26696;SDS011;14312;52.614;13.496;2023-09-18T04:40:48;3.75;;;3.45;;
26696;SDS011;14312;52.614;13.496;2023-09-18T04:43:34;4.03;;;3.70;;
26696;SDS011;14312;52.614;13.496;2023-09-18T04:46:20;4.13;;;3.75;;
26696;SDS011;14312;52.614;13.496;2023-09-18T04:49:06;3.92;;;3.45;;
26696;SDS011;14312;52.614;13.496;2023-09-18T04:51:52;3.90;;;3.60;;
26696;SDS011;14312;52.614;13.496;2023-09-18T04:54:38;4.03;;;3.70;;
26696;SDS011;14312;52.614;13.496;2023-09-18T04:57:24;3.95;;;3.65;;
26696;SDS011;14312;52.614;13.496;2023-09-18T05:00:10;4.05;;;3.75;;
26696;SDS011;14312;52.614;13.496;2023-09-18T05:02:59;4.00;;;3.70;;
26696;SDS011;14312;52.614;13.496;2023-09-18T05:05:47;3.90;;;3.60;;
26696;SDS011;14312;52.614;13.496;2023-09-18T05:08:33;4.18;;;3.78;;
26696;SDS011;14312;52.614;13.496;2023-09-18T05:11:19;4.22;;;3.60;;
26696;SDS011;14312;52.614;13.496;2023-09-18T05:14:05;4.07;;;3.78;;
26696;SDS011;14312;52.614;13.496;2023-09-18T05:16:51;3.97;;;3.67;;
26696;SDS011;14312;52.614;13.496;2023-09-18T05:19:37;4.40;;;4.10;;
26696;SDS011;14312;52.614;13.496;2023-09-18T05:22:23;4.10;;;3.80;;
26696;SDS011;14312;52.614;13.496;2023-09-18T05:25:09;3.60;;;3.40;;
26696;SDS011;14312;52.614;13.496;2023-09-18T05:28:00;3.88;;;3.53;;
26696;SDS011;14312;52.614;13.496;2023-09-18T05:30:46;3.88;;;3.58;;
26696;SDS011;14312;52.614;13.496;2023-09-18T05:33:32;4.18;;;3.88;;
26696;SDS011;14312;52.614;13.496;2023-09-18T05:36:18;3.95;;;3.55;;
26696;SDS011;14312;52.614;13.496;2023-09-18T05:39:05;4.05;;;3.75;;
26696;SDS011;14312;52.614;13.496;2023-09-18T05:41:56;4.35;;;3.92;;
26696;SDS011;14312;52.614;13.496;2023-09-18T05:44:43;3.85;;;3.45;;
26696;SDS011;14312;52.614;13.496;2023-09-18T05:47:31;4.05;;;3.72;;
26696;SDS011;14312;52.614;13.496;2023-09-18T05:50:18;3.63;;;3.30;;
26696;SDS011;14312;52.614;13.496;2023-09-18T05:53:04;3.60;;;3.40;;
26696;SDS011;14312;52.614;13.496;2023-09-18T05:55:50;4.32;;;3.92;;
26696;SDS011;14312;52.614;13.496;2023-09-18T05:58:36;4.10;;;3.60;;
26696;SDS011;14312;52.614;13.496;2023-09-18T06:01:23;3.42;;;3.22;;
26696;SDS011;14312;52.614;13.496;2023-09-18T06:04:09;4.05;;;3.75;;
26696;SDS011;14312;52.614;13.496;2023-09-18T06:06:56;3.92;;;3.63;;
26696;SDS011;14312;52.614;13.496;2023-09-18T06:09:42;3.92;;;3.63;;
26696;SDS011;14312;52.614;13.496;2023-09-18T06:12:28;3.88;;;3.58;;
26696;SDS011;14312;52.614;13.496;2023-09-18T06:15:15;3.75;;;3.45;;
26696;SDS011;14312;52.614;13.496;2023-09-18T06:18:01;3.90;;;3.60;;
26696;SDS011;14312;52.614;13.496;2023-09-18T06:20:49;4.72;;;3.90;;
26696;SDS011;14312;52.614;13.496;2023-09-18T06:23:35;4.32;;;3.92;;
26696;SDS011;14312;52.614;13.496;2023-09-18T06:26:21;3.97;;;3.67;;
26696;SDS011;14312;52.614;13.496;2023-09-18T06:29:07;3.95;;;3.55;;
26696;SDS011;14312;52.614;13.496;2023-09-18T06:31:54;4.35;;;4.05;;
26696;SDS011;14312;52.614;13.496;2023-09-18T06:34:40;4.18;;;3.88;;
26696;SDS011;14312;52.614;13.496;2023-09-18T06:37:29;4.10;;;3.80;;
26696;SDS011;14312;52.614;13.496;2023-09-18T06:40:15;4.22;;;3.92;;
26696;SDS011;14312;52.614;13.496;2023-09-18T06:43:01;4.32;;;3.92;;
26696;SDS011;14312;52.614;13.496;2023-09-18T06:45:47;4.55;;;4.18;;
26696;SDS011;14312;52.614;13.496;2023-09-18T06:48:33;4.63;;;4.22;;
26696;SDS011;14312;52.614;13.496;2023-09-18T06:51:19;4.20;;;3.90;;
26696;SDS011;14312;52.614;13.496;2023-09-18T06:54:05;4.05;;;3.75;;
26696;SDS011;14312;52.614;13.496;2023-09-18T06:56:50;4.65;;;4.25;;
26696;SDS011;14312;52.614;13.496;2023-09-18T06:59:36;4.20;;;3.88;;
26696;SDS011;14312;52.614;13.496;2023-09-18T07:02:22;4.30;;;3.90;;
26696;SDS011;14312;52.614;13.496;2023-09-18T07:05:08;4.45;;;4.15;;
26696;SDS011;14312;52.614;13.496;2023-09-18T07:07:54;4.25;;;3.95;;
26696;SDS011;14312;52.614;13.496;2023-09-18T07:10:41;3.97;;;3.67;;
26696;SDS011;14312;52.614;13.496;2023-09-18T07:13:27;3.70;;;3.40;;
26696;SDS011;14312;52.614;13.496;2023-09-18T07:16:13;3.78;;;3.50;;
26696;SDS011;14312;52.614;13.496;2023-09-18T07:18:59;4.07;;;3.78;;
26696;SDS011;14312;52.614;13.496;2023-09-18T07:21:45;4.07;;;3.78;;
26696;SDS011;14312;52.614;13.496;2023-09-18T07:24:31;4.10;;;3.80;;
26696;SDS011;14312;52.614;13.496;2023-09-18T07:27:16;4.47;;;4.03;;
26696;SDS011;14312;52.614;13.496;2023-09-18T07:30:03;3.58;;;3.28;;
26696;SDS011;14312;52.614;13.496;2023-09-18T07:32:49;3.63;;;3.42;;
26696;SDS011;14312;52.614;13.496;2023-09-18T07:35:36;4.15;;;3.72;;
26696;SDS011;14312;52.614;13.496;2023-09-18T07:38:22;3.88;;;3.53;;
26696;SDS011;14312;52.614;13.496;2023-09-18T07:41:08;4.07;;;3.78;;
26696;SDS011;14312;52.614;13.496;2023-09-18T07:43:54;4.60;;;4.20;;
26696;SDS011;14312;52.614;13.496;2023-09-18T07:46:39;4.03;;;3.65;;
26696;SDS011;14312;52.614;13.496;2023-09-18T07:49:26;4.35;;;4.05;;
26696;SDS011;14312;52.614;13.496;2023-09-18T07:52:12;4.78;;;4.40;;
26696;SDS011;14312;52.614;13.496;2023-09-18T07:54:58;4.13;;;3.83;;
26696;SDS011;14312;52.614;13.496;2023-09-18T07:57:45;4.20;;;3.90;;
26696;SDS011;14312;52.614;13.496;2023-09-18T08:00:31;4.22;;;3.92;;
26696;SDS011;14312;52.614;13.496;2023-09-18T08:03:18;3.85;;;3.60;;
26696;SDS011;14312;52.614;13.496;2023-09-18T08:06:04;5.00;;;4.70;;
26696;SDS011;14312;52.614;13.496;2023-09-18T08:08:50;4.55;;;4.15;;
26696;SDS011;14312;52.614;13.496;2023-09-18T08:11:36;5.15;;;4.63;;
26696;SDS011;14312;52.614;13.496;2023-09-18T08:14:27;4.60;;;4.20;;
26696;SDS011;14312;52.614;13.496;2023-09-18T08:17:13;4.65;;;4.20;;
26696;SDS011;14312;52.614;13.496;2023-09-18T08:19:58;4.55;;;4.15;;
26696;SDS011;14312;52.614;13.496;2023-09-18T08:22:44;4.63;;;4.30;;
26696;SDS011;14312;52.614;13.496;2023-09-18T08:25:31;3.70;;;3.50;;
26696;SDS011;14312;52.614;13.496;2023-09-18T08:28:18;3.45;;;3.25;;
26696;SDS011;14312;52.614;13.496;2023-09-18T08:31:04;3.90;;;3.60;;
26696;SDS011;14312;52.614;13.496;2023-09-18T08:33:50;3.70;;;3.40;;
26696;SDS011;14312;52.614;13.496;2023-09-18T08:36:36;3.80;;;3.55;;
26696;SDS011;14312;52.614;13.496;2023-09-18T08:39:22;3.70;;;3.40;;
26696;SDS011;14312;52.614;13.496;2023-09-18T08:42:08;4.15;;;3.83;;
26696;SDS011;14312;52.614;13.496;2023-09-18T08:44:56;4.15;;;3.85;;
26696;SDS011;14312;52.614;13.496;2023-09-18T08:47:45;4.18;;;3.78;;
26696;SDS011;14312;52.614;13.496;2023-09-18T08:50:32;3.90;;;3.60;;
26696;SDS011;14312;52.614;13.496;2023-09-18T08:53:18;3.45;;;3.22;;
26696;SDS011;14312;52.614;13.496;2023-09-18T08:56:04;3.72;;;3.42;;
26696;SDS011;14312;52.614;13.496;2023-09-18T08:58:51;3.80;;;3.50;;
26696;SDS011;14312;52.614;13.496;2023-09-18T09:01:38;3.75;;;3.45;;
26696;SDS011;14312;52.614;13.496;2023-09-18T09:04:24;4.78;;;3.63;;
26696;SDS011;14312;52.614;13.496;2023-09-18T09:07:10;3.35;;;3.15;;
26696;SDS011;14312;52.614;13.496;2023-09-18T09:09:56;3.67;;;3.38;;
26696;SDS011;14312;52.614;13.496;2023-09-18T09:12:50;3.30;;;3.00;;
26696;SDS011;14312;52.614;13.496;2023-09-18T09:15:44;2.85;;;2.65;;
26696;SDS011;14312;52.614;13.496;2023-09-18T09:18:31;3.20;;;3.00;;
26696;SDS011;14312;52.614;13.496;2023-09-18T09:21:18;3.40;;;2.92;;
26696;SDS011;14312;52.614;13.496;2023-09-18T09:24:05;2.90;;;2.70;;
26696;SDS011;14312;52.614;13.496;2023-09-18T09:26:57;3.95;;;3.55;;
26696;SDS011;14312;52.614;13.496;2023-09-18T09:29:58;3.30;;;3.10;;
26696;SDS011;14312;52.614;13.496;2023-09-18T09:32:47;3.10;;;2.90;;
26696;SDS011;14312;52.614;13.496;2023-09-18T09:35:35;2.97;;;2.78;;
26696;SDS011;14312;52.614;13.496;2023-09-18T09:38:27;3.03;;;2.83;;
26696;SDS011;14312;52.614;13.496;2023-09-18T09:41:17;3.30;;;3.10;;
26696;SDS011;14312;52.614;13.496;2023-09-18T09:44:04;3.17;;;2.97;;
26696;SDS011;14312;52.614;13.496;2023-09-18T09:46:50;3.28;;;3.00;;
26696;SDS011;14312;52.614;13.496;2023-09-18T09:49:46;3.05;;;2.80;;
26696;SDS011;14312;52.614;13.496;2023-09-18T09:52:33;3.10;;;2.90;;
26696;SDS011;14312;52.614;13.496;2023-09-18T09:58:11;2.80;;;2.60;;
26696;SDS011;14312;52.614;13.496;2023-09-18T10:01:01;2.72;;;2.53;;
26696;SDS011;14312;52.614;13.496;2023-09-18T10:03:51;2.80;;;2.60;;
26696;SDS011;14312;52.614;13.496;2023-09-18T10:06:37;3.33;;;2.90;;
26696;SDS011;14312;52.614;13.496;2023-09-18T10:09:24;2.97;;;2.78;;
26696;SDS011;14312;52.614;13.496;2023-09-18T10:12:13;3.30;;;3.00;;
26696;SDS011;14312;52.614;13.496;2023-09-18T10:15:05;5.70;;;3.35;;
26696;SDS011;14312;52.614;13.496;2023-09-18T10:17:55;4.00;;;2.97;;
26696;SDS011;14312;52.614;13.496;2023-09-18T10:20:42;3.20;;;3.00;;
26696;SDS011;14312;52.614;13.496;2023-09-18T10:23:36;3.58;;;3.38;;
26696;SDS011;14312;52.614;13.496;2023-09-18T10:26:32;3.63;;;3.33;;
26696;SDS011;14312;52.614;13.496;2023-09-18T10:29:30;3.22;;;2.92;;
26696;SDS011;14312;52.614;13.496;2023-09-18T10:32:17;3.70;;;3.40;;
26696;SDS011;14312;52.614;13.496;2023-09-18T10:35:06;3.88;;;3.58;;
26696;SDS011;14312;52.614;13.496;2023-09-18T10:37:54;3.72;;;3.42;;
26696;SDS011;14312;52.614;13.496;2023-09-18T10:40:40;3.35;;;3.15;;
26696;SDS011;14312;52.614;13.496;2023-09-18T10:43:28;3.75;;;3.45;;
26696;SDS011;14312;52.614;13.496;2023-09-18T10:46:14;3.95;;;3.53;;
26696;SDS011;14312;52.614;13.496;2023-09-18T10:49:00;3.85;;;3.38;;
26696;SDS011;14312;52.614;13.496;2023-09-18T10:51:46;4.15;;;3.38;;
26696;SDS011;14312;52.614;13.496;2023-09-18T10:54:33;3.50;;;3.22;;
26696;SDS011;14312;52.614;13.496;2023-09-18T10:57:23;3.70;;;3.35;;
26696;SDS011;14312;52.614;13.496;2023-09-18T11:00:10;3.92;;;3.42;;
26696;SDS011;14312;52.614;13.496;2023-09-18T11:03:14;3.53;;;3.30;;
26696;SDS011;14312;52.614;13.496;2023-09-18T11:06:10;3.40;;;3.20;;
26696;SDS011;14312;52.614;13.496;2023-09-18T11:09:00;3.80;;;3.10;;
26696;SDS011;14312;52.614;13.496;2023-09-18T11:11:53;3.97;;;3.67;;
26696;SDS011;14312;52.614;13.496;2023-09-18T11:14:50;4.35;;;3.35;;
26696;SDS011;14312;52.614;13.496;2023-09-18T11:17:42;4.03;;;3.72;;
26696;SDS011;14312;52.614;13.496;2023-09-18T11:20:28;3.88;;;3.58;;
26696;SDS011;14312;52.614;13.496;2023-09-18T11:26:03;3.97;;;3.67;;
26696;SDS011;14312;52.614;13.496;2023-09-18T11:28:50;4.32;;;3.30;;
26696;SDS011;14312;52.614;13.496;2023-09-18T11:34:30;4.30;;;3.72;;
26696;SDS011;14312;52.614;13.496;2023-09-18T11:37:24;3.78;;;3.47;;
26696;SDS011;14312;52.614;13.496;2023-09-18T11:40:44;3.60;;;3.33;;
26696;SDS011;14312;52.614;13.496;2023-09-18T11:43:26;3.50;;;3.20;;
26696;SDS011;14312;52.614;13.496;2023-09-18T11:46:19;3.67;;;3.38;;
26696;SDS011;14312;52.614;13.496;2023-09-18T11:49:12;3.90;;;3.60;;
26696;SDS011;14312;52.614;13.496;2023-09-18T11:51:59;3.60;;;3.35;;
26696;SDS011;14312;52.614;13.496;2023-09-18T11:54:46;3.80;;;3.50;;
26696;SDS011;14312;52.614;13.496;2023-09-18T11:57:35;3.72;;;3.42;;
26696;SDS011;14312;52.614;13.496;2023-09-18T12:00:21;4.07;;;3.78;;
26696;SDS011;14312;52.614;13.496;2023-09-18T12:03:13;4.05;;;3.75;;
26696;SDS011;14312;52.614;13.496;2023-09-18T12:06:10;3.70;;;3.40;;
26696;SDS011;14312;52.614;13.496;2023-09-18T12:09:01;4.35;;;3.80;;
26696;SDS011;14312;52.614;13.496;2023-09-18T12:11:49;4.88;;;3.83;;
26696;SDS011;14312;52.614;13.496;2023-09-18T12:14:39;3.47;;;3.17;;
26696;SDS011;14312;52.614;13.496;2023-09-18T12:17:27;3.78;;;3.45;;
26696;SDS011;14312;52.614;13.496;2023-09-18T12:20:16;4.20;;;3.90;;
26696;SDS011;14312;52.614;13.496;2023-09-18T12:23:05;5.88;;;3.60;;
26696;SDS011;14312;52.614;13.496;2023-09-18T12:25:59;3.80;;;3.50;;
26696;SDS011;14312;52.614;13.496;2023-09-18T12:28:46;4.07;;;3.78;;
26696;SDS011;14312;52.614;13.496;2023-09-18T12:31:33;6.45;;;3.83;;
26696;SDS011;14312;52.614;13.496;2023-09-18T12:34:20;4.30;;;4.00;;
26696;SDS011;14312;52.614;13.496;2023-09-18T12:37:09;3.92;;;3.72;;
26696;SDS011;14312;52.614;13.496;2023-09-18T12:39:58;4.28;;;3.95;;
26696;SDS011;14312;52.614;13.496;2023-09-18T12:42:44;4.50;;;3.50;;
26696;SDS011;14312;52.614;13.496;2023-09-18T12:45:30;4.10;;;3.80;;
26696;SDS011;14312;52.614;13.496;2023-09-18T12:48:16;4.85;;;3.75;;
26696;SDS011;14312;52.614;13.496;2023-09-18T12:51:02;3.38;;;3.08;;
26696;SDS011;14312;52.614;13.496;2023-09-18T12:54:01;4.03;;;3.70;;
26696;SDS011;14312;52.614;13.496;2023-09-18T12:56:52;3.55;;;3.25;;
26696;SDS011;14312;52.614;13.496;2023-09-18T12:59:37;3.50;;;3.30;;
26696;SDS011;14312;52.614;13.496;2023-09-18T13:02:24;3.92;;;3.63;;
26696;SDS011;14312;52.614;13.496;2023-09-18T13:05:10;3.90;;;3.60;;
26696;SDS011;14312;52.614;13.496;2023-09-18T13:07:56;4.47;;;3.65;;
26696;SDS011;14312;52.614;13.496;2023-09-18T13:10:48;3.97;;;3.15;;
26696;SDS011;14312;52.614;13.496;2023-09-18T13:13:38;3.55;;;3.13;;
26696;SDS011;14312;52.614;13.496;2023-09-18T13:16:24;3.40;;;3.20;;
26696;SDS011;14312;52.614;13.496;2023-09-18T13:19:10;3.30;;;3.10;;
26696;SDS011;14312;52.614;13.496;2023-09-18T13:21:57;3.20;;;3.00;;
26696;SDS011;14312;52.614;13.496;2023-09-18T13:24:43;3.58;;;3.28;;
26696;SDS011;14312;52.614;13.496;2023-09-18T13:27:29;6.63;;;3.75;;
26696;SDS011;14312;52.614;13.496;2023-09-18T13:30:15;3.88;;;3.47;;
26696;SDS011;14312;52.614;13.496;2023-09-18T13:33:04;4.35;;;3.75;;
26696;SDS011;14312;52.614;13.496;2023-09-18T13:35:52;3.50;;;3.20;;
26696;SDS011;14312;52.614;13.496;2023-09-18T13:38:39;3.95;;;3.65;;
26696;SDS011;14312;52.614;13.496;2023-09-18T13:41:25;4.30;;;3.28;;
26696;SDS011;14312;52.614;13.496;2023-09-18T13:44:11;3.90;;;3.60;;
26696;SDS011;14312;52.614;13.496;2023-09-18T13:46:57;5.57;;;3.60;;
26696;SDS011;14312;52.614;13.496;2023-09-18T13:49:42;3.55;;;3.25;;
26696;SDS011;14312;52.614;13.496;2023-09-18T13:52:29;6.10;;;3.50;;
26696;SDS011;14312;52.614;13.496;2023-09-18T13:55:16;5.18;;;3.63;;
26696;SDS011;14312;52.614;13.496;2023-09-18T13:58:02;3.88;;;3.50;;
26696;SDS011;14312;52.614;13.496;2023-09-18T14:00:48;4.28;;;3.42;;
26696;SDS011;14312;52.614;13.496;2023-09-18T14:03:34;3.90;;;3.60;;
26696;SDS011;14312;52.614;13.496;2023-09-18T14:06:20;3.83;;;3.47;;
26696;SDS011;14312;52.614;13.496;2023-09-18T14:09:04;5.10;;;3.50;;
26696;SDS011;14312;52.614;13.496;2023-09-18T14:11:51;3.97;;;3.58;;
26696;SDS011;14312;52.614;13.496;2023-09-18T14:14:37;3.95;;;3.35;;
26696;SDS011;14312;52.614;13.496;2023-09-18T14:17:23;3.92;;;3.40;;
26696;SDS011;14312;52.614;13.496;2023-09-18T14:20:09;3.75;;;3.40;;
26696;SDS011;14312;52.614;13.496;2023-09-18T14:22:56;4.63;;;3.60;;
26696;SDS011;14312;52.614;13.496;2023-09-18T14:25:41;4.55;;;3.83;;
26696;SDS011;14312;52.614;13.496;2023-09-18T14:28:27;4.38;;;3.63;;
26696;SDS011;14312;52.614;13.496;2023-09-18T14:31:13;3.75;;;3.35;;
26696;SDS011;14312;52.614;13.496;2023-09-18T14:33:59;3.72;;;3.28;;
26696;SDS011;14312;52.614;13.496;2023-09-18T14:36:45;3.55;;;3.25;;
26696;SDS011;14312;52.614;13.496;2023-09-18T14:39:32;4.90;;;3.25;;
26696;SDS011;14312;52.614;13.496;2023-09-18T14:42:18;3.40;;;3.10;;
26696;SDS011;14312;52.614;13.496;2023-09-18T14:45:04;3.28;;;2.85;;
26696;SDS011;14312;52.614;13.496;2023-09-18T14:47:50;4.03;;;2.85;;
26696;SDS011;14312;52.614;13.496;2023-09-18T14:50:37;2.97;;;2.78;;
26696;SDS011;14312;52.614;13.496;2023-09-18T14:53:23;5.00;;;3.22;;
26696;SDS011;14312;52.614;13.496;2023-09-18T14:56:08;3.13;;;2.80;;
26696;SDS011;14312;52.614;13.496;2023-09-18T14:58:54;3.63;;;3.10;;
26696;SDS011;14312;52.614;13.496;2023-09-18T15:01:40;3.65;;;2.97;;
26696;SDS011;14312;52.614;13.496;2023-09-18T15:04:28;4.50;;;2.30;;
26696;SDS011;14312;52.614;13.496;2023-09-18T15:07:14;3.65;;;2.67;;
26696;SDS011;14312;52.614;13.496;2023-09-18T15:10:00;3.45;;;2.40;;
26696;SDS011;14312;52.614;13.496;2023-09-18T15:12:46;3.25;;;2.72;;
26696;SDS011;14312;52.614;13.496;2023-09-18T15:15:32;4.00;;;2.40;;
26696;SDS011;14312;52.614;13.496;2023-09-18T15:18:17;2.40;;;2.20;;
26696;SDS011;14312;52.614;13.496;2023-09-18T15:21:03;2.50;;;2.30;;
26696;SDS011;14312;52.614;13.496;2023-09-18T15:23:49;3.67;;;2.20;;
26696;SDS011;14312;52.614;13.496;2023-09-18T15:26:37;3.28;;;2.55;;
26696;SDS011;14312;52.614;13.496;2023-09-18T15:29:22;3.08;;;2.50;;
26696;SDS011;14312;52.614;13.496;2023-09-18T15:32:08;6.05;;;2.38;;
26696;SDS011;14312;52.614;13.496;2023-09-18T15:34:54;3.08;;;2.20;;
26696;SDS011;14312;52.614;13.496;2023-09-18T15:37:40;2.83;;;2.28;;
26696;SDS011;14312;52.614;13.496;2023-09-18T15:40:27;2.80;;;2.10;;
26696;SDS011;14312;52.614;13.496;2023-09-18T15:43:13;4.60;;;2.40;;
26696;SDS011;14312;52.614;13.496;2023-09-18T15:46:00;3.17;;;1.98;;
26696;SDS011;14312;52.614;13.496;2023-09-18T15:48:46;2.80;;;2.10;;
26696;SDS011;14312;52.614;13.496;2023-09-18T15:51:35;4.40;;;2.47;;
26696;SDS011;14312;52.614;13.496;2023-09-18T15:54:21;3.10;;;2.42;;
26696;SDS011;14312;52.614;13.496;2023-09-18T15:57:07;3.30;;;2.30;;
26696;SDS011;14312;52.614;13.496;2023-09-18T15:59:53;3.70;;;2.30;;
26696;SDS011;14312;52.614;13.496;2023-09-18T16:02:39;10.50;;;3.08;;
26696;SDS011;14312;52.614;13.496;2023-09-18T16:05:27;1.95;;;1.80;;
26696;SDS011;14312;52.614;13.496;2023-09-18T16:08:13;5.75;;;2.53;;
26696;SDS011;14312;52.614;13.496;2023-09-18T16:10:59;4.78;;;2.55;;
26696;SDS011;14312;52.614;13.496;2023-09-18T16:13:45;4.28;;;2.03;;
26696;SDS011;14312;52.614;13.496;2023-09-18T16:16:30;3.58;;;2.30;;
26696;SDS011;14312;52.614;13.496;2023-09-18T16:19:16;3.25;;;2.40;;
26696;SDS011;14312;52.614;13.496;2023-09-18T16:22:02;3.15;;;2.50;;
26696;SDS011;14312;52.614;13.496;2023-09-18T16:24:50;3.15;;;2.40;;
26696;SDS011;14312;52.614;13.496;2023-09-18T16:27:36;5.35;;;2.60;;
26696;SDS011;14312;52.614;13.496;2023-09-18T16:30:21;5.35;;;2.63;;
26696;SDS011;14312;52.614;13.496;2023-09-18T16:33:08;4.30;;;2.47;;
26696;SDS011;14312;52.614;13.496;2023-09-18T16:35:54;4.43;;;2.75;;
26696;SDS011;14312;52.614;13.496;2023-09-18T16:38:39;6.88;;;2.75;;
26696;SDS011;14312;52.614;13.496;2023-09-18T16:41:27;4.00;;;2.80;;